createdAt,value
2023-02-14T00:00:58.710Z,2.10
2023-02-14T00:03:25.588Z,2.10
2023-02-14T00:05:52.119Z,2.10
2023-02-14T00:08:18.726Z,2.16
2023-02-14T00:10:45.287Z,2.18
2023-02-14T00:13:11.818Z,2.12
2023-02-14T00:15:38.445Z,2.20
2023-02-14T00:18:06.320Z,2.20
2023-02-14T00:20:32.947Z,2.20
2023-02-14T00:23:00.916Z,2.20
2023-02-14T00:25:27.713Z,2.20
2023-02-14T00:27:55.653Z,2.20
2023-02-14T00:30:22.673Z,2.20
2023-02-14T00:32:49.320Z,2.20
2023-02-14T00:35:16.885Z,2.20
2023-02-14T00:40:53.107Z,2.20
2023-02-14T00:43:19.883Z,2.20
2023-02-14T00:45:46.558Z,2.20
2023-02-14T00:48:13.335Z,2.20
2023-02-14T00:50:39.975Z,2.20
2023-02-14T00:53:06.930Z,2.20
2023-02-14T00:55:33.622Z,2.20
2023-02-14T00:58:00.285Z,2.24
2023-02-14T01:00:27.363Z,2.20
2023-02-14T01:02:55.586Z,2.30
2023-02-14T01:05:22.224Z,2.30
2023-02-14T01:07:48.864Z,2.30
2023-02-14T01:10:15.524Z,2.30
2023-02-14T01:12:42.226Z,2.30
2023-02-14T01:15:09.507Z,2.30
2023-02-14T01:17:36.742Z,2.28
2023-02-14T01:20:04.521Z,2.24
2023-02-14T01:30:52.466Z,2.20
2023-02-14T01:33:19.094Z,2.20
2023-02-14T01:35:46.165Z,2.22
2023-02-14T01:38:14.572Z,2.20
2023-02-14T01:40:44.718Z,2.20
2023-02-14T01:43:20.364Z,2.20
2023-02-14T01:45:47.145Z,2.20
2023-02-14T01:48:14.779Z,2.20
2023-02-14T01:50:44.893Z,2.20
2023-02-14T01:53:26.256Z,2.20
2023-02-14T01:56:03.856Z,2.20
2023-02-14T01:58:34.991Z,2.20
2023-02-14T02:01:30.350Z,2.10
2023-02-14T02:04:08.246Z,2.10
2023-02-14T02:06:49.575Z,2.10
2023-02-14T02:09:47.388Z,2.10
2023-02-14T02:12:15.577Z,2.10
2023-02-14T02:14:43.626Z,2.10
2023-02-14T02:17:46.285Z,2.10
2023-02-14T02:20:46.595Z,2.10
2023-02-14T02:23:47.987Z,2.08
2023-02-14T02:26:45.183Z,2.00
2023-02-14T02:29:31.566Z,2.00
2023-02-14T02:32:44.162Z,2.00
2023-02-14T02:36:01.176Z,1.90
2023-02-14T02:38:27.722Z,1.90
2023-02-14T02:41:07.338Z,1.90
2023-02-14T02:44:08.347Z,1.80
2023-02-14T02:46:50.050Z,1.58
2023-02-14T02:50:22.143Z,1.60
2023-02-14T02:53:06.418Z,1.64
2023-02-14T02:56:03.280Z,1.70
2023-02-14T02:58:37.901Z,1.70
2023-02-14T03:01:11.727Z,1.70
2023-02-14T03:03:59.714Z,1.70
2023-02-14T03:11:12.950Z,1.70
2023-02-14T03:13:53.731Z,1.70
2023-02-14T03:16:41.923Z,1.70
2023-02-14T03:19:40.522Z,1.70
2023-02-14T03:22:27.122Z,1.68
2023-02-14T03:25:13.078Z,1.60
2023-02-14T03:27:55.777Z,1.60
2023-02-14T03:30:31.424Z,1.60
2023-02-14T03:33:01.821Z,1.60
2023-02-14T03:35:55.764Z,1.60
2023-02-14T03:38:34.471Z,1.60
2023-02-14T03:41:07.398Z,1.60
2023-02-14T03:43:40.035Z,1.60
2023-02-14T03:46:13.891Z,1.62
2023-02-14T03:48:42.926Z,1.70
2023-02-14T03:51:13.439Z,1.70
2023-02-14T03:53:46.972Z,1.66
2023-02-14T03:56:37.540Z,1.60
2023-02-14T03:59:13.858Z,1.60
2023-02-14T04:01:52.766Z,1.60
2023-02-14T04:04:23.631Z,1.60
2023-02-14T04:06:50.466Z,1.60
2023-02-14T04:09:17.169Z,1.60
2023-02-14T04:11:44.053Z,1.50
2023-02-14T04:14:10.762Z,1.50
2023-02-14T04:16:57.324Z,1.50
2023-02-14T04:19:23.955Z,1.50
2023-02-14T04:21:51.899Z,1.44
2023-02-14T04:24:19.209Z,1.40
2023-02-14T04:27:10.164Z,1.40
2023-02-14T04:29:44.258Z,1.40
2023-02-14T04:32:22.744Z,1.38
2023-02-14T04:34:49.891Z,1.38
2023-02-14T04:37:19.238Z,1.36
2023-02-14T04:39:46.638Z,1.30
2023-02-14T04:42:14.187Z,1.30
2023-02-14T04:44:41.046Z,1.30
2023-02-14T04:47:08.066Z,1.30
2023-02-14T04:49:35.295Z,1.20
2023-02-14T04:52:02.336Z,1.20
2023-02-14T04:54:29.123Z,1.18
2023-02-14T04:56:55.729Z,1.00
2023-02-14T04:59:24.761Z,0.80
2023-02-14T05:01:53.170Z,0.70
2023-02-14T05:04:20.034Z,0.60
2023-02-14T05:06:46.638Z,0.68
2023-02-14T05:09:13.270Z,0.72
2023-02-14T05:11:39.895Z,0.84
2023-02-14T05:14:06.466Z,1.00
2023-02-14T05:16:33.163Z,1.00
2023-02-14T05:18:59.830Z,0.90
2023-02-14T05:21:26.569Z,0.90
2023-02-14T05:23:53.131Z,0.90
2023-02-14T05:26:19.736Z,0.90
2023-02-14T05:28:46.246Z,1.00
2023-02-14T05:31:12.908Z,1.10
2023-02-14T05:33:39.608Z,1.10
2023-02-14T05:36:06.753Z,1.02
2023-02-14T05:38:34.882Z,0.90
2023-02-14T05:41:02.468Z,0.90
2023-02-14T05:43:30.459Z,0.90
2023-02-14T05:45:58.032Z,1.00
2023-02-14T05:48:25.175Z,1.10
2023-02-14T05:50:51.847Z,1.10
2023-02-14T05:53:18.546Z,1.10
2023-02-14T05:55:45.204Z,1.14
2023-02-14T05:58:12.672Z,1.18
2023-02-14T06:00:41.401Z,1.20
2023-02-14T06:03:08.818Z,1.20
2023-02-14T06:05:35.555Z,1.20
2023-02-14T06:08:02.339Z,1.20
2023-02-14T06:10:29.173Z,1.20
2023-02-14T06:12:55.858Z,1.20
2023-02-14T06:15:23.349Z,1.18
2023-02-14T06:17:55.353Z,1.16
2023-02-14T06:20:24.750Z,1.14
2023-02-14T06:22:52.466Z,1.16
2023-02-14T06:25:20.383Z,1.20
2023-02-14T06:27:49.262Z,1.20
2023-02-14T06:30:18.034Z,1.20
2023-02-14T06:32:44.990Z,1.20
2023-02-14T06:35:11.702Z,1.20
2023-02-14T06:37:38.893Z,1.22
2023-02-14T06:40:06.601Z,1.30
2023-02-14T06:42:33.235Z,1.30
2023-02-14T06:44:59.798Z,1.30
2023-02-14T06:47:26.442Z,1.30
2023-02-14T06:49:53.184Z,1.30
2023-02-14T06:52:20.201Z,1.30
2023-02-14T06:54:47.364Z,1.30
2023-02-14T06:57:14.082Z,1.20
2023-02-14T06:59:40.725Z,1.30
2023-02-14T07:02:10.222Z,1.30
2023-02-14T07:04:36.838Z,1.40
2023-02-14T07:07:04.970Z,1.40
2023-02-14T07:09:31.681Z,1.40
2023-02-14T07:11:58.404Z,1.50
2023-02-14T07:14:25.033Z,1.50
2023-02-14T07:16:51.694Z,1.56
2023-02-14T07:19:18.333Z,1.54
2023-02-14T07:21:45.070Z,1.60
2023-02-14T07:24:11.694Z,1.60
2023-02-14T07:26:38.277Z,1.62
2023-02-14T07:29:05.514Z,1.66
2023-02-14T07:31:32.384Z,1.70
2023-02-14T07:34:01.286Z,1.70
2023-02-14T07:36:28.291Z,1.70
2023-02-14T07:38:57.872Z,1.70
2023-02-14T07:41:24.534Z,1.70
2023-02-14T07:43:51.145Z,1.70
2023-02-14T07:46:18.345Z,1.74
2023-02-14T07:48:45.194Z,1.80
2023-02-14T07:51:12.158Z,1.82
2023-02-14T07:53:38.823Z,1.88
2023-02-14T07:56:05.917Z,1.90
2023-02-14T07:58:32.611Z,1.90
2023-02-14T08:00:59.655Z,1.90
2023-02-14T08:03:26.765Z,1.90
2023-02-14T08:05:57.397Z,1.94
2023-02-14T08:08:30.295Z,2.00
2023-02-14T08:10:57.863Z,2.04
2023-02-14T08:13:24.797Z,2.10
2023-02-14T08:16:09.541Z,2.10
2023-02-14T08:18:40.109Z,2.20
2023-02-14T08:21:09.817Z,2.24
2023-02-14T08:23:38.162Z,2.20
2023-02-14T08:26:05.613Z,1.94
2023-02-14T08:28:33.328Z,1.92
2023-02-14T08:31:00.667Z,2.10
2023-02-14T08:33:27.981Z,2.30
2023-02-14T08:35:54.850Z,2.40
2023-02-14T08:38:21.660Z,2.50
2023-02-14T08:40:48.401Z,2.60
2023-02-14T08:43:15.153Z,2.60
2023-02-14T08:45:41.997Z,2.70
2023-02-14T08:48:12.273Z,2.80
2023-02-14T08:50:40.275Z,2.90
2023-02-14T08:53:13.060Z,3.04
2023-02-14T08:55:40.578Z,3.18
2023-02-14T08:58:08.836Z,3.28
2023-02-14T09:00:35.699Z,3.40
2023-02-14T09:03:02.693Z,3.50
2023-02-14T09:05:29.569Z,3.70
2023-02-14T09:07:57.142Z,3.90
2023-02-14T09:10:25.024Z,4.08
2023-02-14T09:12:52.362Z,4.12
2023-02-14T09:15:19.405Z,4.20
2023-02-14T09:17:46.951Z,4.20
2023-02-14T09:20:15.530Z,4.30
2023-02-14T09:22:42.284Z,4.40
2023-02-14T09:25:09.269Z,4.50
2023-02-14T09:27:35.956Z,4.30
2023-02-14T09:30:03.830Z,4.30
2023-02-14T09:32:31.565Z,4.50
2023-02-14T09:35:17.198Z,5.12
2023-02-14T09:38:02.380Z,6.10
2023-02-14T09:40:29.266Z,7.12
2023-02-14T09:43:50.340Z,7.90
2023-02-14T09:46:18.956Z,9.22
2023-02-14T09:48:48.550Z,10.50
2023-02-14T09:51:25.349Z,11.70
2023-02-14T09:54:12.123Z,12.78
2023-02-14T09:56:57.550Z,12.86
2023-02-14T09:59:44.042Z,13.12
2023-02-14T10:02:45.134Z,14.34
2023-02-14T10:05:32.716Z,15.68
2023-02-14T10:08:12.602Z,16.62
2023-02-14T10:10:46.779Z,16.42
2023-02-14T10:13:31.721Z,16.00
2023-02-14T10:16:28.347Z,16.00
2023-02-14T10:19:26.891Z,15.40
2023-02-14T10:22:02.839Z,16.08
2023-02-14T10:24:46.198Z,16.44
2023-02-14T10:27:35.516Z,16.16
2023-02-14T10:30:27.832Z,16.80
2023-02-14T10:33:16.523Z,17.62
2023-02-14T10:36:00.567Z,17.14
2023-02-14T10:38:47.866Z,16.96
2023-02-14T10:41:37.926Z,16.24
2023-02-14T10:44:26.395Z,16.38
2023-02-14T10:47:17.511Z,16.06
2023-02-14T10:50:32.007Z,15.96
2023-02-14T10:53:52.767Z,15.70
2023-02-14T10:56:41.270Z,15.80
2023-02-14T10:59:31.311Z,15.60
2023-02-14T11:02:00.479Z,15.68
2023-02-14T11:04:28.225Z,15.02
2023-02-14T11:06:54.820Z,14.60
2023-02-14T11:09:21.555Z,14.10
2023-02-14T11:11:53.722Z,13.46
2023-02-14T11:14:25.040Z,13.00
2023-02-14T11:16:54.405Z,12.70
2023-02-14T11:19:31.852Z,12.30
2023-02-14T11:22:01.391Z,12.20
2023-02-14T11:24:31.330Z,11.90
2023-02-14T11:27:15.713Z,11.72
2023-02-14T11:29:52.401Z,11.24
2023-02-14T11:32:29.454Z,10.56
2023-02-14T11:35:08.177Z,10.06
2023-02-14T11:37:50.756Z,9.80
2023-02-14T11:40:39.597Z,9.80
2023-02-14T11:43:14.627Z,9.78
2023-02-14T11:45:48.460Z,9.80
2023-02-14T11:48:37.819Z,9.80
2023-02-14T11:51:14.392Z,9.90
2023-02-14T11:53:47.723Z,9.70
2023-02-14T11:56:20.413Z,9.50
2023-02-14T11:59:00.787Z,9.30
2023-02-14T12:01:34.695Z,9.20
2023-02-14T12:04:11.755Z,8.96
2023-02-14T12:06:38.512Z,8.80
2023-02-14T12:09:23.605Z,8.80
2023-02-14T12:12:15.619Z,8.80
2023-02-14T12:14:42.934Z,8.70
2023-02-14T12:17:36.451Z,8.60
2023-02-14T12:20:15.970Z,8.60
2023-02-14T12:23:11.334Z,8.50
2023-02-14T12:26:01.471Z,8.50
2023-02-14T12:29:14.939Z,8.40
2023-02-14T12:31:45.693Z,8.48
2023-02-14T12:34:15.130Z,8.56
2023-02-14T12:36:52.807Z,8.80
2023-02-14T12:39:49.608Z,8.70
2023-02-14T12:42:35.030Z,8.54
2023-02-14T12:45:29.469Z,8.60
2023-02-14T12:48:33.061Z,8.68
2023-02-14T12:51:40.952Z,8.70
2023-02-14T12:54:36.428Z,8.60
2023-02-14T12:57:34.521Z,8.60
2023-02-14T13:00:13.152Z,8.80
2023-02-14T13:03:39.258Z,8.90
2023-02-14T13:06:18.042Z,8.80
2023-02-14T13:09:02.778Z,8.70
2023-02-14T13:11:59.179Z,8.80
2023-02-14T13:14:45.529Z,9.00
2023-02-14T13:17:34.939Z,9.10
2023-02-14T13:20:39.321Z,9.00
2023-02-14T13:23:16.338Z,8.90
2023-02-14T13:25:50.630Z,8.90
2023-02-14T13:28:18.956Z,8.90
2023-02-14T13:30:45.951Z,9.00
2023-02-14T13:33:29.335Z,9.00
2023-02-14T13:36:02.170Z,9.10
2023-02-14T13:38:31.943Z,9.06
2023-02-14T13:41:02.900Z,8.90
2023-02-14T13:43:46.567Z,9.00
2023-02-14T13:46:22.837Z,9.00
2023-02-14T13:49:18.604Z,8.90
2023-02-14T13:51:58.748Z,9.00
2023-02-14T13:54:30.178Z,9.00
2023-02-14T13:56:59.427Z,9.10
2023-02-14T13:59:35.254Z,9.00
2023-02-14T14:02:30.104Z,8.90
2023-02-14T14:04:56.897Z,8.72
2023-02-14T14:07:30.909Z,8.78
2023-02-14T14:10:02.158Z,8.70
2023-02-14T14:12:28.776Z,8.74
2023-02-14T14:15:08.050Z,8.60
2023-02-14T14:17:38.723Z,8.40
2023-02-14T14:20:29.208Z,8.40
2023-02-14T14:22:58.674Z,8.32
2023-02-14T14:25:41.775Z,8.34
2023-02-14T14:28:24.224Z,8.30
2023-02-14T14:30:52.338Z,8.20
2023-02-14T14:33:33.110Z,8.10
2023-02-14T14:36:08.033Z,8.18
2023-02-14T14:38:49.341Z,8.30
2023-02-14T14:41:16.461Z,8.36
2023-02-14T14:43:43.706Z,8.20
2023-02-14T14:46:16.338Z,8.04
2023-02-14T14:48:51.415Z,7.90
2023-02-14T14:51:26.682Z,7.90
2023-02-14T14:54:19.775Z,7.80
2023-02-14T14:57:01.747Z,7.70
2023-02-14T14:59:38.329Z,7.70
2023-02-14T15:02:24.076Z,7.70
2023-02-14T15:04:50.721Z,7.70
2023-02-14T15:07:34.979Z,7.70
2023-02-14T15:10:02.454Z,7.60
2023-02-14T15:12:48.295Z,7.50
2023-02-14T15:15:17.656Z,7.36
2023-02-14T15:17:45.817Z,7.26
2023-02-14T15:20:23.936Z,7.20
2023-02-14T15:22:53.644Z,7.12
2023-02-14T15:25:26.769Z,7.10
2023-02-14T15:27:53.830Z,7.10
2023-02-14T15:30:20.802Z,7.00
2023-02-14T15:32:49.988Z,6.90
2023-02-14T15:35:29.813Z,6.80
2023-02-14T15:38:02.782Z,6.70
2023-02-14T15:40:32.958Z,6.60
2023-02-14T15:43:25.078Z,6.50
2023-02-14T15:45:57.918Z,6.44
2023-02-14T15:48:38.000Z,6.40
2023-02-14T15:51:26.098Z,6.40
2023-02-14T15:54:07.505Z,6.44
2023-02-14T15:56:42.196Z,6.40
2023-02-14T15:59:23.680Z,6.40
2023-02-14T16:02:02.189Z,6.30
2023-02-14T16:04:34.044Z,6.20
2023-02-14T16:07:28.296Z,6.10
2023-02-14T16:10:24.469Z,6.00
2023-02-14T16:13:14.856Z,5.96
2023-02-14T16:16:05.281Z,5.90
2023-02-14T16:18:48.189Z,5.70
2023-02-14T16:21:26.848Z,5.60
2023-02-14T16:24:06.554Z,5.50
2023-02-14T16:26:36.775Z,5.50
2023-02-14T16:29:05.644Z,5.40
2023-02-14T16:31:33.740Z,5.30
2023-02-14T16:34:00.645Z,5.20
2023-02-14T16:36:33.173Z,5.10
2023-02-14T16:39:07.685Z,5.10
2023-02-14T16:41:34.899Z,5.00
2023-02-14T16:44:01.563Z,4.90
2023-02-14T16:46:35.391Z,4.90
2023-02-14T16:49:02.428Z,4.88
2023-02-14T16:51:33.279Z,4.76
2023-02-14T16:54:04.679Z,4.60
2023-02-14T16:56:49.639Z,4.50
2023-02-14T16:59:16.272Z,4.40
2023-02-14T17:01:42.906Z,4.40
2023-02-14T17:04:10.179Z,4.34
2023-02-14T17:06:41.513Z,4.30
2023-02-14T17:09:12.254Z,4.24
2023-02-14T17:11:46.784Z,4.20
2023-02-14T17:14:19.892Z,4.20
2023-02-14T17:16:46.730Z,4.10
2023-02-14T17:19:13.729Z,4.00
2023-02-14T17:21:41.065Z,3.92
2023-02-14T17:24:07.844Z,3.90
2023-02-14T17:26:35.223Z,4.00
2023-02-14T17:29:01.906Z,4.00
2023-02-14T17:31:28.722Z,3.90
2023-02-14T17:33:56.188Z,3.80
2023-02-14T17:36:24.157Z,3.76
2023-02-14T17:38:54.864Z,3.70
2023-02-14T17:41:25.461Z,3.62
2023-02-14T17:43:54.865Z,3.60
2023-02-14T17:46:22.069Z,3.60
2023-02-14T17:48:49.773Z,3.56
2023-02-14T17:51:18.156Z,3.60
2023-02-14T17:53:44.893Z,3.60
2023-02-14T17:56:20.483Z,3.60
2023-02-14T17:58:49.239Z,3.50
2023-02-14T18:01:19.383Z,3.50
2023-02-14T18:03:46.170Z,3.60
2023-02-14T18:06:14.413Z,3.60
2023-02-14T18:08:49.321Z,3.70
2023-02-14T18:11:20.527Z,3.72
2023-02-14T18:13:47.760Z,3.60
2023-02-14T18:16:18.149Z,3.50
2023-02-14T18:18:45.754Z,3.40
2023-02-14T18:21:15.802Z,3.40
2023-02-14T18:23:43.339Z,3.40
2023-02-14T18:26:13.707Z,3.40
2023-02-14T18:28:40.630Z,3.40
2023-02-14T18:31:14.628Z,3.50
2023-02-14T18:33:42.451Z,3.54
2023-02-14T18:36:14.257Z,3.64
2023-02-14T18:38:43.420Z,3.60
2023-02-14T18:41:14.231Z,3.60
2023-02-14T18:43:41.567Z,3.44
2023-02-14T18:46:15.351Z,3.40
2023-02-14T18:48:42.353Z,3.30
2023-02-14T18:51:13.535Z,3.30
2023-02-14T18:53:41.170Z,3.30
2023-02-14T18:56:15.101Z,3.26
2023-02-14T18:58:46.274Z,3.20
2023-02-14T19:01:19.658Z,3.10
2023-02-14T19:03:46.620Z,3.10
2023-02-14T19:06:13.291Z,3.10
2023-02-14T19:08:41.462Z,3.20
2023-02-14T19:11:18.213Z,3.02
2023-02-14T19:13:51.053Z,3.00
2023-02-14T19:16:25.586Z,3.10
2023-02-14T19:18:55.835Z,3.12
2023-02-14T19:21:26.167Z,3.16
2023-02-14T19:23:58.592Z,3.20
2023-02-14T19:26:29.800Z,3.30
2023-02-14T19:28:59.909Z,3.20
2023-02-14T19:31:27.479Z,3.10
2023-02-14T19:33:54.919Z,3.20
2023-02-14T19:36:23.977Z,3.30
2023-02-14T19:38:53.258Z,3.40
2023-02-14T19:41:26.245Z,3.40
2023-02-14T19:43:58.887Z,3.40
2023-02-14T19:46:26.571Z,3.40
2023-02-14T19:48:53.819Z,3.40
2023-02-14T19:51:30.488Z,3.40
2023-02-14T19:54:00.335Z,3.32
2023-02-14T19:56:33.601Z,3.30
2023-02-14T19:59:07.438Z,3.20
2023-02-14T20:01:46.658Z,3.10
2023-02-14T20:04:18.288Z,2.94
2023-02-14T20:06:46.143Z,2.80
2023-02-14T20:09:14.591Z,2.70
2023-02-14T20:11:54.504Z,2.70
2023-02-14T20:14:25.717Z,2.72
2023-02-14T20:16:54.801Z,2.80
2023-02-14T20:19:26.877Z,2.90
2023-02-14T20:21:54.510Z,2.80
2023-02-14T20:24:25.668Z,2.80
2023-02-14T20:26:53.750Z,2.86
2023-02-14T20:29:23.452Z,2.70
2023-02-14T20:31:54.871Z,2.62
2023-02-14T20:34:21.840Z,2.70
2023-02-14T20:36:53.440Z,2.70
2023-02-14T20:39:22.391Z,2.80
2023-02-14T20:41:50.230Z,2.90
2023-02-14T20:44:22.249Z,3.00
2023-02-14T20:46:52.246Z,3.00
2023-02-14T20:49:20.971Z,3.00
2023-02-14T20:51:51.971Z,3.00
2023-02-14T20:54:21.522Z,3.00
2023-02-14T20:56:48.796Z,3.10
2023-02-14T20:59:15.372Z,3.10
2023-02-14T21:01:42.692Z,3.10
2023-02-14T21:04:09.303Z,3.10
2023-02-14T21:06:39.812Z,3.10
2023-02-14T21:09:06.667Z,3.00
2023-02-14T21:11:33.349Z,3.00
2023-02-14T21:14:02.173Z,2.90
2023-02-14T21:16:30.408Z,2.90
2023-02-14T21:18:59.339Z,2.90
2023-02-14T21:21:34.890Z,2.90
2023-02-14T21:24:14.695Z,2.80
2023-02-14T21:26:42.521Z,2.80
2023-02-14T21:29:09.697Z,2.80
2023-02-14T21:31:38.302Z,2.80
2023-02-14T21:34:05.304Z,2.70
2023-02-14T21:36:35.952Z,2.60
2023-02-14T21:39:05.705Z,2.60
2023-02-14T21:41:34.180Z,2.60
2023-02-14T21:44:02.532Z,2.66
2023-02-14T21:46:32.754Z,2.68
2023-02-14T21:49:24.126Z,2.62
2023-02-14T21:51:50.835Z,2.60
2023-02-14T21:54:17.986Z,2.60
2023-02-14T21:56:45.102Z,2.64
2023-02-14T21:59:12.024Z,2.70
2023-02-14T22:01:41.177Z,2.70
2023-02-14T22:04:10.747Z,2.70
2023-02-14T22:06:40.691Z,2.70
2023-02-14T22:09:09.269Z,2.74
2023-02-14T22:11:35.975Z,2.80
2023-02-14T22:14:02.764Z,2.80
2023-02-14T22:16:29.402Z,2.80
2023-02-14T22:18:56.253Z,2.80
2023-02-14T22:21:26.777Z,2.80
2023-02-14T22:23:55.351Z,2.80
2023-02-14T22:26:25.732Z,2.80
2023-02-14T22:28:57.084Z,2.72
2023-02-14T22:31:26.462Z,2.70
2023-02-14T22:33:54.072Z,2.70
2023-02-14T22:36:21.374Z,2.70
2023-02-14T22:38:48.392Z,2.70
2023-02-14T22:41:18.333Z,2.70
2023-02-14T22:43:46.317Z,2.70
2023-02-14T22:46:21.315Z,2.68
2023-02-14T22:48:49.558Z,2.60
2023-02-14T22:51:38.334Z,2.60
2023-02-14T22:54:13.305Z,2.60
2023-02-14T22:56:43.545Z,2.60
2023-02-14T22:59:24.584Z,2.60
2023-02-14T23:01:53.446Z,2.60
2023-02-14T23:04:22.798Z,2.60
2023-02-14T23:06:52.351Z,2.60
2023-02-14T23:09:20.165Z,2.60
2023-02-14T23:11:48.170Z,2.60
2023-02-14T23:14:36.045Z,2.60
2023-02-14T23:17:22.930Z,2.58
2023-02-14T23:20:08.537Z,2.54
2023-02-14T23:22:40.998Z,2.50
2023-02-14T23:25:11.339Z,2.58
2023-02-14T23:27:56.711Z,2.60
2023-02-14T23:30:23.346Z,2.50
2023-02-14T23:32:49.967Z,2.50
2023-02-14T23:35:16.777Z,2.52
2023-02-14T23:37:43.391Z,2.50
2023-02-14T23:40:10.625Z,2.50
2023-02-14T23:42:37.531Z,2.40
2023-02-14T23:45:23.233Z,2.40
2023-02-14T23:47:49.932Z,2.40
2023-02-14T23:50:16.806Z,2.40
2023-02-14T23:52:44.494Z,2.40
2023-02-14T23:55:11.288Z,2.40
2023-02-14T23:57:37.872Z,2.40
